createdAt,value
2022-08-07T00:00:18.712Z,70.05
2022-08-07T00:02:35.390Z,69.86
2022-08-07T00:02:36.031Z,69.81
2022-08-07T00:03:17.984Z,69.69
2022-08-07T00:04:17.134Z,69.72
2022-08-07T00:05:18.334Z,69.83
2022-08-07T00:06:17.386Z,70.22
2022-08-07T00:07:17.657Z,70.45
2022-08-07T00:08:17.627Z,70.43
2022-08-07T00:09:22.375Z,70.36
2022-08-07T00:10:27.068Z,70.35
2022-08-07T00:11:19.912Z,70.28
2022-08-07T00:12:19.398Z,70.20
2022-08-07T00:13:24.003Z,70.22
2022-08-07T00:14:19.284Z,70.07
2022-08-07T00:15:19.414Z,70.08
2022-08-07T00:16:21.591Z,70.03
2022-08-07T00:17:19.746Z,70.09
2022-08-07T00:18:20.354Z,70.02
2022-08-07T00:19:21.602Z,70.08
2022-08-07T00:20:29.776Z,70.22
2022-08-07T00:21:20.125Z,70.34
2022-08-07T00:22:24.860Z,70.26
2022-08-07T00:23:21.154Z,70.37
2022-08-07T00:24:19.523Z,70.40
2022-08-07T00:25:19.620Z,70.92
2022-08-07T00:26:49.454Z,70.92
2022-08-07T00:27:20.830Z,70.95
2022-08-07T00:28:22.080Z,71.12
2022-08-07T00:29:20.112Z,71.88
2022-08-07T00:30:21.606Z,71.91
2022-08-07T00:31:21.349Z,72.11
2022-08-07T00:32:28.345Z,71.96
2022-08-07T00:33:21.772Z,72.16
2022-08-07T00:34:21.714Z,72.41
2022-08-07T00:35:20.848Z,72.36
2022-08-07T00:36:20.989Z,72.14
2022-08-07T00:37:21.087Z,71.69
2022-08-07T00:38:31.219Z,71.57
2022-08-07T00:39:22.518Z,71.49
2022-08-07T00:40:39.077Z,72.11
2022-08-07T00:41:22.568Z,72.67
2022-08-07T00:42:28.973Z,72.95
2022-08-07T00:43:59.033Z,73.36
2022-08-07T00:44:23.046Z,73.53
2022-08-07T00:45:22.026Z,73.55
2022-08-07T00:46:22.430Z,73.53
2022-08-07T00:48:07.993Z,73.63
2022-08-07T00:48:25.075Z,73.50
2022-08-07T00:49:24.853Z,73.40
2022-08-07T00:50:46.190Z,73.39
2022-08-07T00:51:23.757Z,73.51
2022-08-07T00:52:22.896Z,73.65
2022-08-07T00:53:22.984Z,73.73
2022-08-07T00:54:23.216Z,73.64
2022-08-07T00:55:25.486Z,73.61
2022-08-07T00:56:30.238Z,73.60
2022-08-07T00:57:25.740Z,73.58
2022-08-07T00:58:23.570Z,73.60
2022-08-07T00:59:32.710Z,73.56
2022-08-07T01:00:24.855Z,73.65
2022-08-07T01:01:24.094Z,73.78
2022-08-07T01:02:28.931Z,73.76
2022-08-07T01:03:56.313Z,73.72
2022-08-07T01:04:25.347Z,73.71
2022-08-07T01:05:24.536Z,73.80
2022-08-07T01:06:24.693Z,74.11
2022-08-07T01:07:24.633Z,74.53
2022-08-07T01:08:24.759Z,74.76
2022-08-07T01:10:04.539Z,74.97
2022-08-07T01:10:26.002Z,75.16
2022-08-07T01:12:23.647Z,75.21
2022-08-07T01:12:29.721Z,75.31
2022-08-07T01:13:25.371Z,75.43
2022-08-07T01:14:28.602Z,75.53
2022-08-07T01:15:35.805Z,75.42
2022-08-07T01:16:30.230Z,75.41
2022-08-07T01:17:26.186Z,75.30
2022-08-07T01:18:26.003Z,75.23
2022-08-07T01:19:26.139Z,75.17
2022-08-07T01:20:28.299Z,75.12
2022-08-07T01:21:26.409Z,75.24
2022-08-07T01:22:29.530Z,75.54
2022-08-07T01:23:37.949Z,75.73
2022-08-07T01:24:27.758Z,75.77
2022-08-07T01:25:54.727Z,75.55
2022-08-07T01:26:28.039Z,75.52
2022-08-07T01:27:31.981Z,75.55
2022-08-07T01:28:28.238Z,75.61
2022-08-07T01:29:27.686Z,75.55
2022-08-07T01:30:27.567Z,75.36
2022-08-07T01:31:27.618Z,75.32
2022-08-07T01:32:28.846Z,75.34
2022-08-07T01:33:30.124Z,75.25
2022-08-07T01:34:30.839Z,75.29
2022-08-07T01:35:52.955Z,75.39
2022-08-07T01:36:33.292Z,75.59
2022-08-07T01:37:29.409Z,75.77
2022-08-07T01:38:29.495Z,75.94
2022-08-07T01:39:41.101Z,75.88
2022-08-07T01:40:29.717Z,75.91
2022-08-07T01:41:28.845Z,75.79
2022-08-07T01:42:40.292Z,75.75
2022-08-07T01:43:34.708Z,75.99
2022-08-07T01:44:30.224Z,75.88
2022-08-07T01:45:36.427Z,75.68
2022-08-07T01:46:31.165Z,75.68
2022-08-07T01:48:20.253Z,75.73
2022-08-07T01:48:31.004Z,75.84
2022-08-07T01:49:31.866Z,76.19
2022-08-07T01:50:29.953Z,76.27
2022-08-07T01:52:04.020Z,76.15
2022-08-07T01:52:31.172Z,76.48
2022-08-07T01:54:12.063Z,76.75
2022-08-07T01:54:36.576Z,76.97
2022-08-07T01:55:33.628Z,77.14
2022-08-07T01:56:30.692Z,77.24
2022-08-07T01:57:30.834Z,77.22
2022-08-07T01:58:33.397Z,77.14
2022-08-07T01:59:31.574Z,77.04
2022-08-07T02:00:31.153Z,76.96
2022-08-07T02:02:02.779Z,77.05
2022-08-07T02:03:19.177Z,77.29
2022-08-07T02:03:48.713Z,77.47
2022-08-07T02:04:32.819Z,77.63
2022-08-07T02:05:47.877Z,77.64
2022-08-07T02:06:32.915Z,77.77
2022-08-07T02:07:36.166Z,77.76
2022-08-07T02:08:33.129Z,77.70
2022-08-07T02:09:33.809Z,77.63
2022-08-07T02:10:33.405Z,77.50
2022-08-07T02:12:04.170Z,77.45
2022-08-07T02:12:33.668Z,77.38
2022-08-07T02:13:56.738Z,77.49
2022-08-07T02:14:36.291Z,77.59
2022-08-07T02:15:34.217Z,77.60
2022-08-07T02:16:33.875Z,77.55
2022-08-07T02:17:34.363Z,77.34
2022-08-07T02:18:33.400Z,77.21
2022-08-07T02:20:04.718Z,77.27
2022-08-07T02:20:34.743Z,77.64
2022-08-07T02:21:55.222Z,78.04
2022-08-07T02:22:34.874Z,78.29
2022-08-07T02:23:35.841Z,78.40
2022-08-07T02:24:34.075Z,78.54
2022-08-07T02:26:30.635Z,78.54
2022-08-07T02:26:35.325Z,78.42
2022-08-07T02:27:34.998Z,78.26
2022-08-07T02:28:34.549Z,78.15
2022-08-07T02:29:36.837Z,78.17
2022-08-07T02:30:35.866Z,78.13
2022-08-07T02:31:34.918Z,78.05
2022-08-07T02:32:35.052Z,78.00
2022-08-07T02:33:57.133Z,78.21
2022-08-07T02:34:36.325Z,78.40
2022-08-07T02:36:29.364Z,78.52
2022-08-07T02:36:36.579Z,78.56
2022-08-07T02:37:36.023Z,78.72
2022-08-07T02:38:35.897Z,78.83
2022-08-07T02:39:43.906Z,79.02
2022-08-07T02:40:37.089Z,79.25
2022-08-07T02:41:37.148Z,79.32
2022-08-07T02:42:36.266Z,79.49
2022-08-07T02:43:39.458Z,79.64
2022-08-07T02:44:36.603Z,79.91
2022-08-07T02:46:00.401Z,80.10
2022-08-07T02:46:37.791Z,80.27
2022-08-07T02:47:48.888Z,80.51
2022-08-07T02:48:38.115Z,80.78
2022-08-07T02:49:58.349Z,81.03
2022-08-07T02:50:38.321Z,81.28
2022-08-07T02:51:42.785Z,81.41
2022-08-07T02:52:38.678Z,81.53
2022-08-07T02:53:38.740Z,81.60
2022-08-07T02:54:37.769Z,81.48
2022-08-07T02:56:02.266Z,81.44
2022-08-07T02:56:39.008Z,81.40
2022-08-07T02:57:38.141Z,81.33
2022-08-07T02:58:39.818Z,81.33
2022-08-07T02:59:39.420Z,81.34
2022-08-07T03:00:39.187Z,81.26
2022-08-07T03:01:40.053Z,81.09
2022-08-07T03:02:42.050Z,81.02
2022-08-07T03:03:49.227Z,81.08
2022-08-07T03:04:40.045Z,81.19
2022-08-07T03:05:39.196Z,81.19
2022-08-07T03:06:39.327Z,81.29
2022-08-07T03:08:04.633Z,81.39
2022-08-07T03:08:40.690Z,81.45
2022-08-07T03:09:43.455Z,81.41
2022-08-07T03:10:46.480Z,81.30
2022-08-07T03:11:52.429Z,81.15
2022-08-07T03:12:41.114Z,81.04
2022-08-07T03:13:49.398Z,80.92
2022-08-07T03:14:41.414Z,81.11
2022-08-07T03:15:55.573Z,81.23
2022-08-07T03:16:41.804Z,81.28
2022-08-07T03:17:53.015Z,81.22
2022-08-07T03:18:41.813Z,81.17
2022-08-07T03:19:41.023Z,81.07
2022-08-07T03:20:41.053Z,80.93
2022-08-07T03:21:41.183Z,80.70
2022-08-07T03:22:42.303Z,80.58
2022-08-07T03:24:20.299Z,80.42
2022-08-07T03:24:42.682Z,80.30
2022-08-07T03:25:41.834Z,80.13
2022-08-07T03:26:42.874Z,80.03
2022-08-07T03:28:08.781Z,79.97
2022-08-07T03:28:43.343Z,79.86
2022-08-07T03:29:44.598Z,79.82
2022-08-07T03:30:43.232Z,79.91
2022-08-07T03:31:46.211Z,79.88
2022-08-07T03:32:48.987Z,79.83
2022-08-07T03:33:43.610Z,79.82
2022-08-07T03:34:47.143Z,79.83
2022-08-07T03:35:50.691Z,79.88
2022-08-07T03:36:43.872Z,80.31
2022-08-07T03:37:46.554Z,80.53
2022-08-07T03:38:44.099Z,80.71
2022-08-07T03:39:58.895Z,80.79
2022-08-07T03:40:44.644Z,80.89
2022-08-07T03:41:47.696Z,81.09
2022-08-07T03:42:44.589Z,81.18
2022-08-07T03:43:44.039Z,81.22
2022-08-07T03:44:47.278Z,81.34
2022-08-07T03:45:48.628Z,81.46
2022-08-07T03:47:13.802Z,81.60
2022-08-07T03:47:51.170Z,81.75
2022-08-07T03:49:02.597Z,81.92
2022-08-07T03:49:47.757Z,82.00
2022-08-07T03:50:52.070Z,82.09
2022-08-07T03:51:47.297Z,82.25
2022-08-07T03:52:44.876Z,82.38
2022-08-07T03:54:01.859Z,82.46
2022-08-07T03:54:54.270Z,82.50
2022-08-07T03:55:58.365Z,82.47
2022-08-07T03:57:03.415Z,82.41
2022-08-07T03:58:34.691Z,82.28
2022-08-07T03:59:09.712Z,82.12
2022-08-07T04:00:01.837Z,82.09
2022-08-07T04:00:53.281Z,82.07
2022-08-07T04:01:47.054Z,82.06
2022-08-07T04:02:47.430Z,82.06
2022-08-07T04:03:49.635Z,82.10
2022-08-07T04:04:47.383Z,82.09
2022-08-07T04:05:46.513Z,82.09
2022-08-07T04:06:46.673Z,82.17
2022-08-07T04:07:47.621Z,82.24
2022-08-07T04:08:46.972Z,82.33
2022-08-07T04:09:50.470Z,82.36
2022-08-07T04:10:54.635Z,82.37
2022-08-07T04:12:23.872Z,82.38
2022-08-07T04:12:48.441Z,82.39
2022-08-07T04:14:11.026Z,82.47
2022-08-07T04:14:49.042Z,82.60
2022-08-07T04:15:49.084Z,82.60
2022-08-07T04:16:58.298Z,82.58
2022-08-07T04:18:31.043Z,82.55
2022-08-07T04:18:59.594Z,82.58
2022-08-07T04:19:52.939Z,82.60
2022-08-07T04:20:54.533Z,82.54
2022-08-07T04:21:59.064Z,82.52
2022-08-07T04:22:53.656Z,82.52
2022-08-07T04:24:07.573Z,82.58
2022-08-07T04:24:49.979Z,82.62
2022-08-07T04:25:49.090Z,82.53
2022-08-07T04:26:49.238Z,82.50
2022-08-07T04:28:00.243Z,82.54
2022-08-07T04:28:50.458Z,82.57
2022-08-07T04:30:02.446Z,82.53
2022-08-07T04:30:56.996Z,82.45
2022-08-07T04:32:09.825Z,82.48
2022-08-07T04:32:58.322Z,82.52
2022-08-07T04:33:55.092Z,82.56
2022-08-07T04:34:51.226Z,82.62
2022-08-07T04:35:51.195Z,82.64
2022-08-07T04:36:50.487Z,82.60
2022-08-07T04:38:02.960Z,82.58
2022-08-07T04:38:51.714Z,82.63
2022-08-07T04:39:50.910Z,82.62
2022-08-07T04:40:52.646Z,82.63
2022-08-07T04:41:51.113Z,82.69
2022-08-07T04:42:51.830Z,82.74
2022-08-07T04:44:13.003Z,82.79
2022-08-07T04:44:54.488Z,82.81
2022-08-07T04:46:01.523Z,82.82
2022-08-07T04:47:03.873Z,82.78
2022-08-07T04:47:57.357Z,82.76
2022-08-07T04:48:52.995Z,82.71
2022-08-07T04:49:57.922Z,82.62
2022-08-07T04:50:54.082Z,82.59
2022-08-07T04:51:52.359Z,82.48
2022-08-07T04:52:52.861Z,82.47
2022-08-07T04:54:05.547Z,82.43
2022-08-07T04:54:53.757Z,82.34
2022-08-07T04:58:12.971Z,82.42
2022-08-07T04:58:16.378Z,82.32
2022-08-07T04:58:24.426Z,82.38
2022-08-07T04:59:17.536Z,82.47
2022-08-07T05:00:11.066Z,82.55
2022-08-07T05:00:54.514Z,82.55
2022-08-07T05:01:53.638Z,82.54
2022-08-07T05:02:53.768Z,82.54
2022-08-07T05:04:06.816Z,82.60
2022-08-07T05:04:55.219Z,82.62
2022-08-07T05:05:57.528Z,82.62
2022-08-07T05:06:54.268Z,82.61
2022-08-07T05:07:54.406Z,82.47
2022-08-07T05:09:01.457Z,82.43
2022-08-07T05:09:55.736Z,82.52
2022-08-07T05:10:58.522Z,82.45
2022-08-07T05:11:57.510Z,82.41
2022-08-07T05:12:59.970Z,82.36
2022-08-07T05:14:52.729Z,82.41
2022-08-07T05:15:03.200Z,82.54
2022-08-07T05:15:56.394Z,82.35
2022-08-07T05:16:55.515Z,82.36
2022-08-07T05:17:55.889Z,82.43
2022-08-07T05:18:55.752Z,82.36
2022-08-07T05:19:55.844Z,82.36
2022-08-07T05:20:55.956Z,82.22
2022-08-07T05:22:00.169Z,81.85
2022-08-07T05:22:57.242Z,81.90
2022-08-07T05:23:56.243Z,81.80
2022-08-07T05:24:56.404Z,81.69
2022-08-07T05:26:13.519Z,81.29
2022-08-07T05:26:57.676Z,80.77
2022-08-07T05:28:16.140Z,80.90
2022-08-07T05:28:57.901Z,80.78
2022-08-07T05:29:57.051Z,80.58
2022-08-07T05:30:57.351Z,80.29
2022-08-07T05:31:57.357Z,79.76
2022-08-07T05:32:57.480Z,79.39
2022-08-07T05:34:04.348Z,79.15
2022-08-07T05:34:58.729Z,78.96
2022-08-07T05:35:57.878Z,78.76
2022-08-07T05:36:57.950Z,78.48
2022-08-07T05:38:09.001Z,77.63
2022-08-07T05:39:08.644Z,77.55
2022-08-07T05:40:13.759Z,77.00
2022-08-07T05:40:59.540Z,77.04
2022-08-07T05:42:02.533Z,77.24
2022-08-07T05:42:59.660Z,77.15
2022-08-07T05:44:12.411Z,77.01
2022-08-07T05:45:14.159Z,76.92
2022-08-07T05:46:00.167Z,76.51
2022-08-07T05:47:00.344Z,74.69
2022-08-07T05:48:02.419Z,73.49
2022-08-07T05:48:59.819Z,74.37
2022-08-07T05:49:59.518Z,75.12
2022-08-07T05:50:59.838Z,75.30
2022-08-07T05:51:59.908Z,75.13
2022-08-07T05:52:59.896Z,75.11
2022-08-07T05:54:09.410Z,73.93
2022-08-07T05:55:07.274Z,74.05
2022-08-07T05:56:03.636Z,73.82
2022-08-07T05:57:00.425Z,73.37
2022-08-07T05:58:00.514Z,73.49
2022-08-07T05:59:00.671Z,72.82
2022-08-07T06:00:01.418Z,72.30
2022-08-07T06:01:00.893Z,71.11
2022-08-07T06:02:01.158Z,72.07
2022-08-07T06:03:01.127Z,71.53
2022-08-07T06:04:01.585Z,71.49
2022-08-07T06:05:01.415Z,71.05
2022-08-07T06:06:01.564Z,71.29
2022-08-07T06:07:03.394Z,71.32
2022-08-07T06:08:30.396Z,71.41
2022-08-07T06:09:04.562Z,71.71
2022-08-07T06:10:05.637Z,71.27
2022-08-07T06:11:03.941Z,70.69
2022-08-07T06:12:02.473Z,71.04
2022-08-07T06:13:02.455Z,69.75
2022-08-07T06:14:11.446Z,67.47
2022-08-07T06:15:05.323Z,67.29
2022-08-07T06:16:02.792Z,67.26
2022-08-07T06:17:07.233Z,66.78
2022-08-07T06:18:03.002Z,67.21
2022-08-07T06:19:03.123Z,66.21
2022-08-07T06:20:03.919Z,65.76
2022-08-07T06:22:14.759Z,65.76
2022-08-07T06:22:17.020Z,65.88
2022-08-07T06:23:24.868Z,68.48
2022-08-07T06:24:52.778Z,67.23
2022-08-07T06:25:04.876Z,67.91
2022-08-07T06:26:03.950Z,68.85
2022-08-07T06:27:04.061Z,68.35
2022-08-07T06:28:04.535Z,67.39
2022-08-07T06:29:04.279Z,67.52
2022-08-07T06:30:04.430Z,66.72
2022-08-07T06:31:04.570Z,66.20
2022-08-07T06:32:04.718Z,63.73
2022-08-07T06:33:04.839Z,62.83
2022-08-07T06:34:06.006Z,62.58
2022-08-07T06:35:10.591Z,63.20
2022-08-07T06:36:13.799Z,64.93
2022-08-07T06:37:06.328Z,64.68
2022-08-07T06:38:05.466Z,63.48
2022-08-07T06:40:13.336Z,64.53
2022-08-07T06:40:15.989Z,63.76
2022-08-07T06:41:07.145Z,62.74
2022-08-07T06:42:06.043Z,63.09
2022-08-07T06:43:07.165Z,62.12
2022-08-07T06:44:11.021Z,60.47
2022-08-07T06:45:06.307Z,60.27
2022-08-07T06:46:12.213Z,60.12
2022-08-07T06:47:10.153Z,62.38
2022-08-07T06:48:07.668Z,62.14
2022-08-07T06:49:06.949Z,61.29
2022-08-07T06:50:06.948Z,61.09
2022-08-07T06:51:08.169Z,61.11
2022-08-07T06:52:07.589Z,61.29
2022-08-07T06:53:07.348Z,60.65
2022-08-07T06:55:28.866Z,61.04
2022-08-07T06:55:31.348Z,60.97
2022-08-07T06:56:15.214Z,60.81
2022-08-07T06:57:08.816Z,59.61
2022-08-07T06:58:10.320Z,57.76
2022-08-07T07:00:11.804Z,59.16
2022-08-07T07:00:11.805Z,59.48
2022-08-07T07:01:09.410Z,56.67
2022-08-07T07:02:08.572Z,56.20
2022-08-07T07:03:13.565Z,58.19
2022-08-07T07:04:32.975Z,58.22
2022-08-07T07:05:12.695Z,56.85
2022-08-07T07:06:11.293Z,56.73
2022-08-07T07:07:10.460Z,54.81
2022-08-07T07:08:12.646Z,57.90
2022-08-07T07:09:10.536Z,58.12
2022-08-07T07:10:10.529Z,56.73
2022-08-07T07:11:13.125Z,57.09
2022-08-07T07:12:16.682Z,55.12
2022-08-07T07:13:10.858Z,54.26
2022-08-07T07:14:10.094Z,54.65
2022-08-07T07:15:23.855Z,54.49
2022-08-07T07:16:11.213Z,55.20
2022-08-07T07:17:15.991Z,54.48
2022-08-07T07:18:11.478Z,54.98
2022-08-07T07:19:56.479Z,55.31
2022-08-07T07:20:11.916Z,55.42
2022-08-07T07:21:13.562Z,54.91
2022-08-07T07:22:35.894Z,54.77
2022-08-07T07:24:09.458Z,56.04
2022-08-07T07:24:12.967Z,54.86
2022-08-07T07:26:31.281Z,53.95
2022-08-07T07:26:35.787Z,56.07
2022-08-07T07:27:12.555Z,57.19
2022-08-07T07:28:42.358Z,56.29
2022-08-07T07:29:39.626Z,55.70
2022-08-07T07:30:12.933Z,55.99
2022-08-07T07:31:13.033Z,52.51
2022-08-07T07:32:12.147Z,52.06
2022-08-07T07:33:12.377Z,51.59
2022-08-07T07:34:12.434Z,52.63
2022-08-07T07:35:12.595Z,52.86
2022-08-07T07:36:13.538Z,51.42
2022-08-07T07:37:22.094Z,51.21
2022-08-07T07:38:13.992Z,51.29
2022-08-07T07:39:13.278Z,51.60
2022-08-07T07:40:14.795Z,50.89
2022-08-07T07:41:13.283Z,51.94
2022-08-07T07:42:19.705Z,49.78
2022-08-07T07:43:18.581Z,50.01
2022-08-07T07:44:21.387Z,49.13
2022-08-07T07:45:14.811Z,48.51
2022-08-07T07:46:38.505Z,51.44
2022-08-07T07:47:23.718Z,49.69
2022-08-07T07:48:34.779Z,50.78
2022-08-07T07:50:33.879Z,48.22
2022-08-07T07:50:34.945Z,48.30
2022-08-07T07:51:15.613Z,47.81
2022-08-07T07:52:15.813Z,48.84
2022-08-07T07:53:23.207Z,51.27
2022-08-07T07:54:16.572Z,48.42
2022-08-07T07:55:16.011Z,46.62
2022-08-07T07:56:15.092Z,47.72
2022-08-07T07:57:15.232Z,48.20
2022-08-07T07:58:15.421Z,48.82
2022-08-07T07:59:15.491Z,45.83
2022-08-07T08:00:29.904Z,48.44
2022-08-07T08:02:02.856Z,46.17
2022-08-07T08:02:34.102Z,46.75
2022-08-07T08:04:06.061Z,46.90
2022-08-07T08:04:17.127Z,46.19
2022-08-07T08:05:16.214Z,47.68
2022-08-07T08:06:16.356Z,44.41
2022-08-07T08:07:20.005Z,47.22
2022-08-07T08:08:35.555Z,45.93
2022-08-07T08:09:17.849Z,43.20
2022-08-07T08:10:35.733Z,42.83
2022-08-07T08:11:47.118Z,42.26
2022-08-07T08:12:42.941Z,41.52
2022-08-07T08:13:18.310Z,43.57
2022-08-07T08:14:21.418Z,43.18
2022-08-07T08:15:21.768Z,44.71
2022-08-07T08:16:18.106Z,42.31
2022-08-07T08:17:57.221Z,42.03
2022-08-07T08:18:19.177Z,41.93
2022-08-07T08:20:16.267Z,40.54
2022-08-07T08:20:26.281Z,39.44
2022-08-07T08:21:19.284Z,39.64
2022-08-07T08:22:18.390Z,41.68
2022-08-07T08:23:18.624Z,43.41
2022-08-07T08:24:45.707Z,39.70
2022-08-07T08:25:26.808Z,43.55
2022-08-07T08:26:19.830Z,42.23
2022-08-07T08:27:18.947Z,41.95
2022-08-07T08:28:24.062Z,41.45
2022-08-07T08:29:20.190Z,38.72
2022-08-07T08:30:19.766Z,40.90
2022-08-07T08:31:29.906Z,39.82
2022-08-07T08:32:25.171Z,39.51
2022-08-07T08:33:21.926Z,37.64
2022-08-07T08:34:27.191Z,39.33
2022-08-07T08:35:20.921Z,39.42
2022-08-07T08:36:25.406Z,36.51
2022-08-07T08:37:59.063Z,38.56
2022-08-07T08:38:21.470Z,38.07
2022-08-07T08:39:20.473Z,37.17
2022-08-07T08:40:23.378Z,37.83
2022-08-07T08:41:21.637Z,36.29
2022-08-07T08:42:20.788Z,36.36
2022-08-07T08:43:22.082Z,37.56
2022-08-07T08:44:29.309Z,38.42
2022-08-07T08:45:22.178Z,37.83
2022-08-07T08:46:21.956Z,38.59
2022-08-07T08:47:21.416Z,41.11
2022-08-07T08:48:21.599Z,40.14
2022-08-07T08:49:33.506Z,41.67
2022-08-07T08:50:35.285Z,39.21
2022-08-07T08:51:49.306Z,40.51
2022-08-07T08:52:23.007Z,37.91
2022-08-07T08:53:23.138Z,35.41
2022-08-07T08:54:22.376Z,37.11
2022-08-07T08:55:55.605Z,36.70
2022-08-07T08:56:24.691Z,39.20
2022-08-07T08:57:22.621Z,34.45
2022-08-07T08:58:28.359Z,36.65
2022-08-07T08:59:23.977Z,36.19
2022-08-07T09:00:22.976Z,36.57
2022-08-07T09:01:24.305Z,35.95
2022-08-07T09:02:36.785Z,34.82
2022-08-07T09:03:49.514Z,36.76
2022-08-07T09:04:26.130Z,37.62
2022-08-07T09:05:36.745Z,38.20
2022-08-07T09:06:24.745Z,36.86
2022-08-07T09:07:25.258Z,35.69
2022-08-07T09:08:28.353Z,36.20
2022-08-07T09:09:30.164Z,37.04
2022-08-07T09:10:25.273Z,36.11
2022-08-07T09:11:51.251Z,35.53
2022-08-07T09:12:31.025Z,35.74
2022-08-07T09:13:35.325Z,34.68
2022-08-07T09:14:27.485Z,32.45
2022-08-07T09:16:23.408Z,32.63
2022-08-07T09:16:30.170Z,31.98
2022-08-07T09:17:25.095Z,33.11
2022-08-07T09:18:26.218Z,33.38
2022-08-07T09:19:50.865Z,33.91
2022-08-07T09:20:35.971Z,33.99
2022-08-07T09:21:58.212Z,34.53
2022-08-07T09:24:28.040Z,33.18
2022-08-07T09:24:31.146Z,34.84
2022-08-07T09:24:33.073Z,36.90
2022-08-07T09:25:27.195Z,34.31
2022-08-07T09:26:26.253Z,35.82
2022-08-07T09:27:28.758Z,32.51
2022-08-07T09:30:05.475Z,34.13
2022-08-07T09:30:06.491Z,34.92
2022-08-07T09:30:28.046Z,33.61
2022-08-07T09:31:26.802Z,31.82
2022-08-07T09:32:27.902Z,34.43
2022-08-07T09:33:52.456Z,33.23
2022-08-07T09:34:28.140Z,35.99
2022-08-07T09:36:04.972Z,35.14
2022-08-07T09:36:31.197Z,32.59
2022-08-07T09:37:28.643Z,32.51
2022-08-07T09:38:28.651Z,32.03
2022-08-07T09:39:54.149Z,31.48
2022-08-07T09:40:28.937Z,31.09
2022-08-07T09:41:28.070Z,31.71
2022-08-07T09:42:33.249Z,32.53
2022-08-07T09:44:03.444Z,32.59
2022-08-07T09:44:58.427Z,31.45
2022-08-07T09:47:51.239Z,31.42
2022-08-07T09:47:52.328Z,32.96
2022-08-07T09:47:52.710Z,31.45
2022-08-07T09:48:50.026Z,32.94
2022-08-07T09:50:01.995Z,30.32
2022-08-07T09:50:30.320Z,34.16
2022-08-07T09:52:16.044Z,32.34
2022-08-07T09:52:34.111Z,31.48
2022-08-07T09:53:40.855Z,31.25
2022-08-07T09:54:30.568Z,32.44
2022-08-07T09:56:03.274Z,31.50
2022-08-07T09:56:37.151Z,31.37
2022-08-07T09:57:31.336Z,31.22
2022-08-07T09:58:32.511Z,31.49
2022-08-07T09:59:44.562Z,31.64
2022-08-07T10:00:32.020Z,31.90
2022-08-07T10:01:51.647Z,32.94
2022-08-07T10:02:31.673Z,32.85
2022-08-07T10:04:05.879Z,31.52
2022-08-07T10:04:33.082Z,31.31
2022-08-07T10:06:00.052Z,30.19
2022-08-07T10:06:32.071Z,34.90
2022-08-07T10:07:31.591Z,34.95
2022-08-07T10:08:32.229Z,33.68
2022-08-07T10:09:42.951Z,31.87
2022-08-07T10:10:53.761Z,30.85
2022-08-07T10:12:01.167Z,32.55
2022-08-07T10:12:32.665Z,30.41
2022-08-07T10:14:00.979Z,31.50
2022-08-07T10:14:32.905Z,31.96
2022-08-07T10:15:44.052Z,31.23
2022-08-07T10:16:33.275Z,30.81
2022-08-07T10:18:00.719Z,30.26
2022-08-07T10:18:33.365Z,30.85
2022-08-07T10:19:32.508Z,30.85
2022-08-07T10:20:33.609Z,31.90
2022-08-07T10:22:16.332Z,30.31
2022-08-07T10:22:36.761Z,30.01
2022-08-07T10:24:05.439Z,29.69
2022-08-07T10:24:39.680Z,30.83
2022-08-07T10:25:43.096Z,30.97
2022-08-07T10:26:34.361Z,30.17
2022-08-07T10:27:44.916Z,29.30
2022-08-07T10:28:34.601Z,30.78
2022-08-07T10:29:34.922Z,30.39
2022-08-07T10:30:33.904Z,29.47
2022-08-07T10:31:38.634Z,30.60
2022-08-07T10:32:50.960Z,30.26
2022-08-07T10:34:06.034Z,32.36
2022-08-07T10:34:35.390Z,29.74
2022-08-07T10:35:56.674Z,29.48
2022-08-07T10:36:36.141Z,30.48
2022-08-07T10:38:00.161Z,29.95
2022-08-07T10:38:48.117Z,29.98
2022-08-07T10:39:41.730Z,30.54
2022-08-07T10:40:36.042Z,30.22
2022-08-07T10:41:53.077Z,30.49
2022-08-07T10:42:37.043Z,29.63
2022-08-07T10:43:35.467Z,29.58
2022-08-07T10:44:38.411Z,29.27
2022-08-07T10:45:43.975Z,31.00
2022-08-07T10:46:36.879Z,30.42
2022-08-07T10:47:53.256Z,30.61
2022-08-07T10:48:37.159Z,30.60
2022-08-07T10:49:49.606Z,31.12
2022-08-07T10:50:37.335Z,29.07
2022-08-07T10:51:39.170Z,29.69
2022-08-07T10:52:36.606Z,28.70
2022-08-07T10:53:41.692Z,29.74
2022-08-07T10:54:37.857Z,31.44
2022-08-07T10:55:38.631Z,29.57
2022-08-07T10:56:37.105Z,32.50
2022-08-07T10:57:37.324Z,29.96
2022-08-07T10:58:40.473Z,30.11
2022-08-07T10:59:37.820Z,31.54
2022-08-07T11:00:43.117Z,29.88
2022-08-07T11:01:52.135Z,31.57
2022-08-07T11:02:40.114Z,28.83
2022-08-07T11:03:54.886Z,31.42
2022-08-07T11:04:39.113Z,28.65
2022-08-07T11:05:48.902Z,29.08
2022-08-07T11:06:39.343Z,29.02
2022-08-07T11:07:58.440Z,29.23
2022-08-07T11:08:39.562Z,29.38
2022-08-07T11:10:09.237Z,29.69
2022-08-07T11:10:39.821Z,28.10
2022-08-07T11:11:38.961Z,30.34
2022-08-07T11:12:39.141Z,29.43
2022-08-07T11:14:44.338Z,31.01
2022-08-07T11:14:45.030Z,29.82
2022-08-07T11:15:40.461Z,28.39
2022-08-07T11:16:39.621Z,28.81
2022-08-07T11:17:43.317Z,28.34
2022-08-07T11:18:41.190Z,29.04
2022-08-07T11:19:40.023Z,29.49
2022-08-07T11:20:40.530Z,28.10
2022-08-07T11:21:42.789Z,27.30
2022-08-07T11:22:45.995Z,30.79
2022-08-07T11:23:41.480Z,27.04
2022-08-07T11:24:45.657Z,26.61
2022-08-07T11:25:47.996Z,27.37
2022-08-07T11:26:48.003Z,26.11
2022-08-07T11:28:02.947Z,27.92
2022-08-07T11:28:42.439Z,28.56
2022-08-07T11:29:47.272Z,28.84
2022-08-07T11:30:42.501Z,27.79
2022-08-07T11:31:41.526Z,29.07
2022-08-07T11:32:41.735Z,29.23
2022-08-07T11:33:59.607Z,28.96
2022-08-07T11:34:42.933Z,29.09
2022-08-07T11:35:59.756Z,29.46
2022-08-07T11:36:43.133Z,28.78
2022-08-07T11:37:58.338Z,28.92
2022-08-07T11:38:43.357Z,28.20
2022-08-07T11:40:00.558Z,28.81
2022-08-07T11:40:45.291Z,28.65
2022-08-07T11:42:00.463Z,28.23
2022-08-07T11:42:43.876Z,28.86
2022-08-07T11:44:12.005Z,30.85
2022-08-07T11:44:52.676Z,29.08
2022-08-07T11:45:49.902Z,28.93
2022-08-07T11:46:44.326Z,27.61
2022-08-07T11:47:56.053Z,28.28
2022-08-07T11:49:04.170Z,29.18
2022-08-07T11:50:18.775Z,28.13
2022-08-07T11:50:57.371Z,29.66
2022-08-07T11:51:46.807Z,29.77
2022-08-07T11:52:44.083Z,29.78
2022-08-07T11:54:00.931Z,28.50
2022-08-07T11:54:53.060Z,27.82
2022-08-07T11:56:09.337Z,28.95
2022-08-07T11:56:45.573Z,27.61
2022-08-07T11:58:00.401Z,27.42
2022-08-07T11:58:45.854Z,27.79
2022-08-07T12:00:10.445Z,28.81
2022-08-07T12:00:48.915Z,28.51
2022-08-07T12:01:59.628Z,29.43
2022-08-07T12:02:52.721Z,28.33
2022-08-07T12:03:46.603Z,28.58
2022-08-07T12:04:45.779Z,29.20
2022-08-07T12:05:49.007Z,29.07
2022-08-07T12:06:56.312Z,28.48
2022-08-07T12:07:46.873Z,29.00
2022-08-07T12:08:46.994Z,29.06
2022-08-07T12:09:46.226Z,30.13
2022-08-07T12:10:46.220Z,29.94
2022-08-07T12:12:10.825Z,29.88
2022-08-07T12:12:47.475Z,30.39
2022-08-07T12:13:47.805Z,28.77
2022-08-07T12:14:51.501Z,28.52
2022-08-07T12:16:06.987Z,28.95
2022-08-07T12:16:48.080Z,30.25
2022-08-07T12:17:58.926Z,30.18
2022-08-07T12:18:48.177Z,31.03
2022-08-07T12:20:04.906Z,30.27
2022-08-07T12:20:49.275Z,29.33
2022-08-07T12:22:36.701Z,27.72
2022-08-07T12:22:56.313Z,29.84
2022-08-07T12:24:07.184Z,29.02
2022-08-07T12:25:02.027Z,27.83
2022-08-07T12:26:02.777Z,28.74
2022-08-07T12:26:49.585Z,28.82
2022-08-07T12:28:09.042Z,30.65
2022-08-07T12:28:49.874Z,29.38
2022-08-07T12:29:51.683Z,28.11
2022-08-07T12:30:48.715Z,28.62
2022-08-07T12:32:01.574Z,31.68
2022-08-07T12:32:50.118Z,27.93
2022-08-07T12:34:00.735Z,27.23
2022-08-07T12:34:55.752Z,27.27
2022-08-07T12:35:57.626Z,29.03
2022-08-07T12:36:50.447Z,28.96
2022-08-07T12:38:09.823Z,28.42
2022-08-07T12:38:57.566Z,29.63
2022-08-07T12:39:51.636Z,28.71
2022-08-07T12:40:50.364Z,28.21
2022-08-07T12:41:51.946Z,31.36
2022-08-07T12:42:52.752Z,27.82
2022-08-07T12:44:03.749Z,26.28
2022-08-07T12:44:51.455Z,26.23
2022-08-07T12:45:52.508Z,30.16
2022-08-07T12:46:50.805Z,27.17
2022-08-07T12:47:50.846Z,26.94
2022-08-07T12:48:53.051Z,28.92
2022-08-07T12:49:52.973Z,27.12
2022-08-07T12:50:51.112Z,27.19
2022-08-07T12:52:13.974Z,28.49
2022-08-07T12:52:53.087Z,29.76
2022-08-07T12:54:03.090Z,29.31